sensor_id;sensor_type;location;lat;lon;timestamp;pressure;altitude;pressure_sealevel;temperature;humidity
9746;BME280;4912;50.836;12.958;2023-06-22T00:00:01;98132.28;;;23.50;77.91
9746;BME280;4912;50.836;12.958;2023-06-22T00:02:40;98122.28;;;23.49;78.12
9746;BME280;4912;50.836;12.958;2023-06-22T00:05:10;98127.94;;;23.49;77.80
9746;BME280;4912;50.836;12.958;2023-06-22T00:07:40;98121.31;;;23.46;77.71
9746;BME280;4912;50.836;12.958;2023-06-22T00:10:11;98124.13;;;23.46;78.07
9746;BME280;4912;50.836;12.958;2023-06-22T00:12:41;98125.97;;;23.44;78.33
9746;BME280;4912;50.836;12.958;2023-06-22T00:15:11;98119.88;;;23.40;78.23
9746;BME280;4912;50.836;12.958;2023-06-22T00:17:45;98113.06;;;23.35;78.32
9746;BME280;4912;50.836;12.958;2023-06-22T00:20:15;98111.22;;;23.38;77.77
9746;BME280;4912;50.836;12.958;2023-06-22T00:22:46;98106.88;;;23.37;77.97
9746;BME280;4912;50.836;12.958;2023-06-22T00:25:16;98098.41;;;23.37;77.73
9746;BME280;4912;50.836;12.958;2023-06-22T00:27:46;98104.34;;;23.33;77.91
9746;BME280;4912;50.836;12.958;2023-06-22T00:30:16;98106.44;;;23.33;77.63
9746;BME280;4912;50.836;12.958;2023-06-22T00:32:50;98107.31;;;23.27;78.17
9746;BME280;4912;50.836;12.958;2023-06-22T00:35:20;98101.25;;;23.23;77.91
9746;BME280;4912;50.836;12.958;2023-06-22T00:37:55;98107.44;;;23.22;78.61
9746;BME280;4912;50.836;12.958;2023-06-22T00:40:31;98110.59;;;23.18;78.56
9746;BME280;4912;50.836;12.958;2023-06-22T00:43:02;98107.56;;;23.16;78.44
9746;BME280;4912;50.836;12.958;2023-06-22T00:45:33;98109.44;;;23.14;78.31
9746;BME280;4912;50.836;12.958;2023-06-22T00:48:05;98102.25;;;23.13;78.67
9746;BME280;4912;50.836;12.958;2023-06-22T00:50:36;98104.09;;;23.10;78.98
9746;BME280;4912;50.836;12.958;2023-06-22T00:53:07;98106.72;;;23.08;79.04
9746;BME280;4912;50.836;12.958;2023-06-22T00:55:41;98101.41;;;23.05;78.63
9746;BME280;4912;50.836;12.958;2023-06-22T00:58:14;98100.97;;;23.01;78.96
9746;BME280;4912;50.836;12.958;2023-06-22T01:00:44;98099.47;;;23.00;79.20
9746;BME280;4912;50.836;12.958;2023-06-22T01:03:17;98097.53;;;22.95;79.45
9746;BME280;4912;50.836;12.958;2023-06-22T01:05:48;98097.09;;;22.91;79.58
9746;BME280;4912;50.836;12.958;2023-06-22T01:08:22;98092.94;;;22.92;79.42
9746;BME280;4912;50.836;12.958;2023-06-22T01:11:00;98088.63;;;22.91;78.48
9746;BME280;4912;50.836;12.958;2023-06-22T01:13:37;98101.75;;;22.88;78.61
9746;BME280;4912;50.836;12.958;2023-06-22T01:16:18;98103.81;;;22.88;78.88
9746;BME280;4912;50.836;12.958;2023-06-22T01:18:56;98105.88;;;22.87;78.43
9746;BME280;4912;50.836;12.958;2023-06-22T01:21:28;98104.38;;;22.86;78.07
9746;BME280;4912;50.836;12.958;2023-06-22T01:24:04;98111.44;;;22.79;78.64
9746;BME280;4912;50.836;12.958;2023-06-22T01:26:47;98108.94;;;22.76;79.10
9746;BME280;4912;50.836;12.958;2023-06-22T01:29:27;98100.25;;;22.74;79.22
9746;BME280;4912;50.836;12.958;2023-06-22T01:31:59;98101.25;;;22.76;79.06
9746;BME280;4912;50.836;12.958;2023-06-22T01:34:31;98095.19;;;22.72;79.41
9746;BME280;4912;50.836;12.958;2023-06-22T01:37:03;98097.22;;;22.72;79.46
9746;BME280;4912;50.836;12.958;2023-06-22T01:39:33;98100.91;;;22.67;79.36
9746;BME280;4912;50.836;12.958;2023-06-22T01:42:04;98111.97;;;22.65;79.06
9746;BME280;4912;50.836;12.958;2023-06-22T01:44:38;98097.44;;;22.61;79.41
9746;BME280;4912;50.836;12.958;2023-06-22T01:47:08;98092.31;;;22.59;79.31
9746;BME280;4912;50.836;12.958;2023-06-22T01:49:42;98085.94;;;22.59;79.83
9746;BME280;4912;50.836;12.958;2023-06-22T01:52:13;98085.50;;;22.55;79.70
9746;BME280;4912;50.836;12.958;2023-06-22T01:54:43;98079.09;;;22.54;79.53
9746;BME280;4912;50.836;12.958;2023-06-22T01:57:13;98081.91;;;22.54;79.41
9746;BME280;4912;50.836;12.958;2023-06-22T01:59:47;98081.16;;;22.54;79.52
9746;BME280;4912;50.836;12.958;2023-06-22T02:02:20;98071.41;;;22.55;79.28
9746;BME280;4912;50.836;12.958;2023-06-22T02:04:57;98075.84;;;22.50;79.66
9746;BME280;4912;50.836;12.958;2023-06-22T02:07:30;98079.41;;;22.51;79.80
9746;BME280;4912;50.836;12.958;2023-06-22T02:10:02;98076.59;;;22.51;79.98
9746;BME280;4912;50.836;12.958;2023-06-22T02:12:36;98079.97;;;22.49;80.35
9746;BME280;4912;50.836;12.958;2023-06-22T02:15:10;98086.16;;;22.48;80.25
9746;BME280;4912;50.836;12.958;2023-06-22T02:17:42;98090.78;;;22.45;79.95
9746;BME280;4912;50.836;12.958;2023-06-22T02:20:13;98084.72;;;22.41;79.76
9746;BME280;4912;50.836;12.958;2023-06-22T02:22:44;98098.19;;;22.35;79.77
9746;BME280;4912;50.836;12.958;2023-06-22T02:25:15;98094.47;;;22.27;79.50
9746;BME280;4912;50.836;12.958;2023-06-22T02:27:45;98102.84;;;22.19;80.17
9746;BME280;4912;50.836;12.958;2023-06-22T02:30:19;98102.06;;;22.19;80.28
9746;BME280;4912;50.836;12.958;2023-06-22T02:32:49;98100.13;;;22.14;80.91
9746;BME280;4912;50.836;12.958;2023-06-22T02:35:26;98100.41;;;22.10;81.15
9746;BME280;4912;50.836;12.958;2023-06-22T02:37:58;98086.13;;;22.08;81.92
9746;BME280;4912;50.836;12.958;2023-06-22T02:40:29;98096.06;;;22.09;82.16
9746;BME280;4912;50.836;12.958;2023-06-22T02:43:00;98094.03;;;22.10;81.88
9746;BME280;4912;50.836;12.958;2023-06-22T02:45:33;98090.13;;;22.13;81.61
9746;BME280;4912;50.836;12.958;2023-06-22T02:48:03;98083.97;;;22.14;81.26
9746;BME280;4912;50.836;12.958;2023-06-22T02:50:34;98073.22;;;22.13;81.36
9746;BME280;4912;50.836;12.958;2023-06-22T02:53:05;98067.91;;;22.09;81.01
9746;BME280;4912;50.836;12.958;2023-06-22T02:55:38;98072.25;;;22.10;80.63
9746;BME280;4912;50.836;12.958;2023-06-22T02:58:09;98074.63;;;22.06;81.07
9746;BME280;4912;50.836;12.958;2023-06-22T03:00:42;98084.91;;;22.03;81.25
9746;BME280;4912;50.836;12.958;2023-06-22T03:03:12;98076.16;;;22.07;81.33
9746;BME280;4912;50.836;12.958;2023-06-22T03:05:43;98083.63;;;22.04;81.29
9746;BME280;4912;50.836;12.958;2023-06-22T03:08:13;98089.03;;;22.02;81.08
9746;BME280;4912;50.836;12.958;2023-06-22T03:10:43;98088.59;;;21.98;81.64
9746;BME280;4912;50.836;12.958;2023-06-22T03:13:13;98079.16;;;21.96;81.93
9746;BME280;4912;50.836;12.958;2023-06-22T03:15:46;98077.13;;;21.96;81.90
9746;BME280;4912;50.836;12.958;2023-06-22T03:18:17;98081.72;;;21.94;81.72
9746;BME280;4912;50.836;12.958;2023-06-22T03:20:49;98085.31;;;21.94;82.17
9746;BME280;4912;50.836;12.958;2023-06-22T03:23:19;98073.03;;;21.92;82.61
9746;BME280;4912;50.836;12.958;2023-06-22T03:25:49;98073.03;;;21.92;82.41
9746;BME280;4912;50.836;12.958;2023-06-22T03:28:22;98074.56;;;21.93;82.15
9746;BME280;4912;50.836;12.958;2023-06-22T03:30:56;98079.16;;;21.96;82.15
9746;BME280;4912;50.836;12.958;2023-06-22T03:33:29;98077.88;;;21.97;82.48
9746;BME280;4912;50.836;12.958;2023-06-22T03:35:59;98076.84;;;21.94;82.87
9746;BME280;4912;50.836;12.958;2023-06-22T03:38:30;98069.84;;;22.01;82.57
9746;BME280;4912;50.836;12.958;2023-06-22T03:41:00;98079.28;;;22.03;82.20
9746;BME280;4912;50.836;12.958;2023-06-22T03:43:30;98072.34;;;22.04;81.73
9746;BME280;4912;50.836;12.958;2023-06-22T03:46:05;98066.50;;;22.02;82.12
9746;BME280;4912;50.836;12.958;2023-06-22T03:48:36;98067.69;;;22.07;81.68
9746;BME280;4912;50.836;12.958;2023-06-22T03:51:07;98076.16;;;22.07;81.20
9746;BME280;4912;50.836;12.958;2023-06-22T03:53:37;98069.75;;;22.07;81.09
9746;BME280;4912;50.836;12.958;2023-06-22T03:56:07;98072.56;;;22.07;81.48
9746;BME280;4912;50.836;12.958;2023-06-22T03:58:37;98067.91;;;22.09;81.64
9746;BME280;4912;50.836;12.958;2023-06-22T04:01:12;98077.56;;;22.14;82.02
9746;BME280;4912;50.836;12.958;2023-06-22T04:03:43;98078.53;;;22.16;81.82
9746;BME280;4912;50.836;12.958;2023-06-22T04:06:15;98091.75;;;22.21;81.39
9746;BME280;4912;50.836;12.958;2023-06-22T04:08:46;98101.44;;;22.26;80.92
9746;BME280;4912;50.836;12.958;2023-06-22T04:11:18;98108.91;;;22.23;80.45
9746;BME280;4912;50.836;12.958;2023-06-22T04:13:48;98122.78;;;22.21;80.71
9746;BME280;4912;50.836;12.958;2023-06-22T04:16:21;98127.66;;;22.21;79.98
9746;BME280;4912;50.836;12.958;2023-06-22T04:18:51;98141.75;;;22.21;80.52
9746;BME280;4912;50.836;12.958;2023-06-22T04:21:21;98146.06;;;22.09;81.35
9746;BME280;4912;50.836;12.958;2023-06-22T04:23:52;98148.25;;;22.16;80.93
9746;BME280;4912;50.836;12.958;2023-06-22T04:26:22;98157.81;;;22.26;80.94
9746;BME280;4912;50.836;12.958;2023-06-22T04:28:52;98162.06;;;22.32;81.21
9746;BME280;4912;50.836;12.958;2023-06-22T04:31:25;98173.50;;;22.21;82.22
9746;BME280;4912;50.836;12.958;2023-06-22T04:33:59;98201.41;;;22.25;82.44
9746;BME280;4912;50.836;12.958;2023-06-22T04:36:36;98200.44;;;22.35;82.05
9746;BME280;4912;50.836;12.958;2023-06-22T04:39:08;98208.59;;;22.52;81.37
9746;BME280;4912;50.836;12.958;2023-06-22T04:41:39;98211.78;;;22.62;80.80
9746;BME280;4912;50.836;12.958;2023-06-22T04:44:13;98205.19;;;22.72;80.42
9746;BME280;4912;50.836;12.958;2023-06-22T04:46:55;98198.91;;;22.93;79.54
9746;BME280;4912;50.836;12.958;2023-06-22T04:49:29;98192.59;;;23.00;78.39
9746;BME280;4912;50.836;12.958;2023-06-22T04:52:04;98201.19;;;23.07;78.18
9746;BME280;4912;50.836;12.958;2023-06-22T04:54:35;98195.19;;;23.11;77.17
9746;BME280;4912;50.836;12.958;2023-06-22T04:57:06;98182.38;;;23.10;77.54
9746;BME280;4912;50.836;12.958;2023-06-22T04:59:38;98164.78;;;23.17;77.50
9746;BME280;4912;50.836;12.958;2023-06-22T05:02:11;98165.78;;;23.19;76.95
9746;BME280;4912;50.836;12.958;2023-06-22T05:04:42;98172.72;;;23.18;76.81
9746;BME280;4912;50.836;12.958;2023-06-22T05:07:12;98167.94;;;23.26;77.09
9746;BME280;4912;50.836;12.958;2023-06-22T05:09:43;98163.53;;;23.39;76.10
9746;BME280;4912;50.836;12.958;2023-06-22T05:12:13;98158.53;;;23.58;75.51
9746;BME280;4912;50.836;12.958;2023-06-22T05:14:43;98160.00;;;23.72;74.81
9746;BME280;4912;50.836;12.958;2023-06-22T05:17:16;98157.00;;;23.91;75.11
9746;BME280;4912;50.836;12.958;2023-06-22T05:19:46;98159.41;;;24.07;74.12
9746;BME280;4912;50.836;12.958;2023-06-22T05:22:17;98164.38;;;24.15;73.43
9746;BME280;4912;50.836;12.958;2023-06-22T05:24:47;98169.34;;;24.22;73.15
9746;BME280;4912;50.836;12.958;2023-06-22T05:27:18;98162.59;;;24.25;72.80
9746;BME280;4912;50.836;12.958;2023-06-22T05:29:48;98155.81;;;24.28;72.85
9746;BME280;4912;50.836;12.958;2023-06-22T05:32:21;98148.16;;;24.36;73.46
9746;BME280;4912;50.836;12.958;2023-06-22T05:34:51;98154.66;;;24.44;72.80
9746;BME280;4912;50.836;12.958;2023-06-22T05:37:22;98135.63;;;24.52;72.68
9746;BME280;4912;50.836;12.958;2023-06-22T05:39:53;98114.56;;;24.61;72.07
9746;BME280;4912;50.836;12.958;2023-06-22T05:42:24;98088.91;;;24.59;72.83
9746;BME280;4912;50.836;12.958;2023-06-22T05:44:55;98035.09;;;24.51;73.43
9746;BME280;4912;50.836;12.958;2023-06-22T05:47:28;97989.00;;;24.35;72.95
9746;BME280;4912;50.836;12.958;2023-06-22T05:49:58;97947.13;;;24.34;74.94
9746;BME280;4912;50.836;12.958;2023-06-22T05:52:33;97933.44;;;24.53;75.62
9746;BME280;4912;50.836;12.958;2023-06-22T05:55:04;97944.47;;;24.79;75.96
9746;BME280;4912;50.836;12.958;2023-06-22T05:57:36;97952.84;;;25.00;74.70
9746;BME280;4912;50.836;12.958;2023-06-22T06:00:06;97959.28;;;25.08;72.93
9746;BME280;4912;50.836;12.958;2023-06-22T06:02:41;97979.13;;;25.23;72.48
9746;BME280;4912;50.836;12.958;2023-06-22T06:05:11;97983.88;;;25.21;70.63
9746;BME280;4912;50.836;12.958;2023-06-22T06:07:43;97985.72;;;25.11;68.79
9746;BME280;4912;50.836;12.958;2023-06-22T06:10:14;97994.41;;;25.13;67.82
9746;BME280;4912;50.836;12.958;2023-06-22T06:12:44;98016.28;;;25.05;66.80
9746;BME280;4912;50.836;12.958;2023-06-22T06:15:15;98018.00;;;25.08;66.84
9746;BME280;4912;50.836;12.958;2023-06-22T06:17:48;98014.47;;;25.30;66.15
9746;BME280;4912;50.836;12.958;2023-06-22T06:20:20;98019.00;;;25.41;65.87
9746;BME280;4912;50.836;12.958;2023-06-22T06:22:51;98005.41;;;25.54;65.15
9746;BME280;4912;50.836;12.958;2023-06-22T06:25:22;98014.50;;;25.83;65.35
9746;BME280;4912;50.836;12.958;2023-06-22T06:27:52;98024.31;;;26.20;64.42
9746;BME280;4912;50.836;12.958;2023-06-22T06:30:24;98023.66;;;26.60;63.84
9746;BME280;4912;50.836;12.958;2023-06-22T06:32:57;98029.66;;;26.79;62.02
9746;BME280;4912;50.836;12.958;2023-06-22T06:35:28;98024.53;;;26.77;62.33
9746;BME280;4912;50.836;12.958;2023-06-22T06:37:58;98022.84;;;26.74;61.86
9746;BME280;4912;50.836;12.958;2023-06-22T06:40:29;98029.50;;;26.69;61.90
9746;BME280;4912;50.836;12.958;2023-06-22T06:43:00;98024.22;;;26.66;61.23
9746;BME280;4912;50.836;12.958;2023-06-22T06:45:30;98026.28;;;26.65;61.42
9746;BME280;4912;50.836;12.958;2023-06-22T06:48:14;98036.31;;;26.66;61.44
9746;BME280;4912;50.836;12.958;2023-06-22T06:50:44;98037.44;;;26.71;60.85
9746;BME280;4912;50.836;12.958;2023-06-22T06:53:14;98034.00;;;26.80;59.89
9746;BME280;4912;50.836;12.958;2023-06-22T06:55:45;98035.50;;;26.88;59.47
9746;BME280;4912;50.836;12.958;2023-06-22T06:58:15;98034.69;;;27.03;59.05
9746;BME280;4912;50.836;12.958;2023-06-22T07:00:46;98037.97;;;27.24;59.64
9746;BME280;4912;50.836;12.958;2023-06-22T07:03:19;98038.25;;;27.44;58.65
9746;BME280;4912;50.836;12.958;2023-06-22T07:05:49;98038.94;;;27.52;57.50
9746;BME280;4912;50.836;12.958;2023-06-22T07:08:20;98038.69;;;27.65;58.24
9746;BME280;4912;50.836;12.958;2023-06-22T07:10:50;98040.59;;;27.62;57.89
9746;BME280;4912;50.836;12.958;2023-06-22T07:13:21;98030.13;;;27.90;57.83
9746;BME280;4912;50.836;12.958;2023-06-22T07:15:52;98035.44;;;28.10;56.62
9746;BME280;4912;50.836;12.958;2023-06-22T07:18:25;98040.59;;;28.29;56.04
9746;BME280;4912;50.836;12.958;2023-06-22T07:20:55;98039.19;;;28.72;57.87
9746;BME280;4912;50.836;12.958;2023-06-22T07:23:25;98039.47;;;29.11;55.37
9746;BME280;4912;50.836;12.958;2023-06-22T07:25:56;98029.69;;;29.48;55.77
9746;BME280;4912;50.836;12.958;2023-06-22T07:28:28;98038.59;;;29.62;53.37
9746;BME280;4912;50.836;12.958;2023-06-22T07:31:03;98037.28;;;29.73;52.03
9746;BME280;4912;50.836;12.958;2023-06-22T07:33:37;98034.72;;;29.67;50.58
9746;BME280;4912;50.836;12.958;2023-06-22T07:36:07;98030.53;;;29.68;50.85
9746;BME280;4912;50.836;12.958;2023-06-22T07:38:37;98018.97;;;29.76;51.05
9746;BME280;4912;50.836;12.958;2023-06-22T07:41:08;98021.03;;;29.92;51.07
9746;BME280;4912;50.836;12.958;2023-06-22T07:43:38;98015.31;;;29.92;50.27
9746;BME280;4912;50.836;12.958;2023-06-22T07:46:08;98025.88;;;30.09;50.25
9746;BME280;4912;50.836;12.958;2023-06-22T07:48:41;98026.78;;;30.21;49.61
9746;BME280;4912;50.836;12.958;2023-06-22T07:51:11;98020.16;;;30.28;49.47
9746;BME280;4912;50.836;12.958;2023-06-22T07:53:42;98018.53;;;30.35;48.09
9746;BME280;4912;50.836;12.958;2023-06-22T07:56:13;98021.16;;;30.50;48.54
9746;BME280;4912;50.836;12.958;2023-06-22T07:58:45;98016.31;;;30.52;47.32
9746;BME280;4912;50.836;12.958;2023-06-22T08:01:16;98021.13;;;30.60;46.67
9746;BME280;4912;50.836;12.958;2023-06-22T08:03:50;98010.16;;;30.75;47.59
9746;BME280;4912;50.836;12.958;2023-06-22T08:06:21;98008.34;;;30.80;46.38
9746;BME280;4912;50.836;12.958;2023-06-22T08:08:51;98007.75;;;30.91;46.35
9746;BME280;4912;50.836;12.958;2023-06-22T08:11:23;98011.00;;;31.16;45.85
9746;BME280;4912;50.836;12.958;2023-06-22T08:13:54;98009.22;;;31.21;44.71
9746;BME280;4912;50.836;12.958;2023-06-22T08:16:25;98009.19;;;31.30;44.13
9746;BME280;4912;50.836;12.958;2023-06-22T08:18:58;97996.75;;;31.57;44.53
9746;BME280;4912;50.836;12.958;2023-06-22T08:21:29;97996.00;;;31.87;45.75
9746;BME280;4912;50.836;12.958;2023-06-22T08:23:59;97995.56;;;32.12;44.18
9746;BME280;4912;50.836;12.958;2023-06-22T08:26:29;97993.41;;;32.22;42.23
9746;BME280;4912;50.836;12.958;2023-06-22T08:29:02;97989.16;;;32.23;42.51
9746;BME280;4912;50.836;12.958;2023-06-22T08:31:33;97982.69;;;32.23;42.38
9746;BME280;4912;50.836;12.958;2023-06-22T08:34:06;97982.44;;;32.40;41.95
9746;BME280;4912;50.836;12.958;2023-06-22T08:36:36;97984.59;;;32.72;42.44
9746;BME280;4912;50.836;12.958;2023-06-22T08:39:11;97989.41;;;33.03;42.23
9746;BME280;4912;50.836;12.958;2023-06-22T08:41:41;97995.41;;;33.07;40.49
9746;BME280;4912;50.836;12.958;2023-06-22T08:44:12;97987.31;;;33.15;40.00
9746;BME280;4912;50.836;12.958;2023-06-22T08:46:42;97986.13;;;33.41;39.33
9746;BME280;4912;50.836;12.958;2023-06-22T08:49:20;97977.44;;;33.62;38.55
9746;BME280;4912;50.836;12.958;2023-06-22T08:51:50;97980.19;;;33.84;38.09
9746;BME280;4912;50.836;12.958;2023-06-22T08:54:23;97971.31;;;34.03;37.12
9746;BME280;4912;50.836;12.958;2023-06-22T08:56:53;97977.63;;;34.25;36.77
9746;BME280;4912;50.836;12.958;2023-06-22T08:59:23;97977.88;;;34.66;36.91
9746;BME280;4912;50.836;12.958;2023-06-22T09:01:53;97973.06;;;34.82;35.53
9746;BME280;4912;50.836;12.958;2023-06-22T09:04:27;97973.41;;;35.13;35.92
9746;BME280;4912;50.836;12.958;2023-06-22T09:07:02;97976.91;;;35.12;35.07
9746;BME280;4912;50.836;12.958;2023-06-22T09:09:32;97967.19;;;35.30;35.42
9746;BME280;4912;50.836;12.958;2023-06-22T09:12:03;97968.69;;;35.31;34.49
9746;BME280;4912;50.836;12.958;2023-06-22T09:14:35;97967.63;;;35.52;34.58
9746;BME280;4912;50.836;12.958;2023-06-22T09:17:05;97962.63;;;35.66;34.44
9746;BME280;4912;50.836;12.958;2023-06-22T09:19:38;97962.44;;;35.90;34.10
9746;BME280;4912;50.836;12.958;2023-06-22T09:22:09;97956.69;;;36.17;34.27
9746;BME280;4912;50.836;12.958;2023-06-22T09:24:39;97967.16;;;36.10;33.71
9746;BME280;4912;50.836;12.958;2023-06-22T09:27:10;97957.09;;;36.11;32.97
9746;BME280;4912;50.836;12.958;2023-06-22T09:29:40;97949.22;;;36.26;33.10
9746;BME280;4912;50.836;12.958;2023-06-22T09:32:10;97947.69;;;36.38;32.92
9746;BME280;4912;50.836;12.958;2023-06-22T09:34:43;97938.28;;;36.38;32.63
9746;BME280;4912;50.836;12.958;2023-06-22T09:37:14;97940.31;;;36.78;33.32
9746;BME280;4912;50.836;12.958;2023-06-22T09:39:44;97933.28;;;36.97;33.01
9746;BME280;4912;50.836;12.958;2023-06-22T09:42:14;97941.66;;;36.48;33.10
9746;BME280;4912;50.836;12.958;2023-06-22T09:44:44;97939.94;;;35.45;34.21
9746;BME280;4912;50.836;12.958;2023-06-22T09:47:15;97936.16;;;36.38;34.44
9746;BME280;4912;50.836;12.958;2023-06-22T09:49:47;97935.66;;;36.58;32.80
9746;BME280;4912;50.836;12.958;2023-06-22T09:52:18;97936.97;;;35.70;34.25
9746;BME280;4912;50.836;12.958;2023-06-22T09:54:54;97935.66;;;35.07;34.89
9746;BME280;4912;50.836;12.958;2023-06-22T09:57:24;97925.41;;;36.25;34.00
9746;BME280;4912;50.836;12.958;2023-06-22T09:59:55;97922.31;;;36.64;33.48
9746;BME280;4912;50.836;12.958;2023-06-22T10:02:25;97921.31;;;37.18;33.13
9746;BME280;4912;50.836;12.958;2023-06-22T10:04:59;97910.94;;;37.76;32.57
9746;BME280;4912;50.836;12.958;2023-06-22T10:07:29;97917.94;;;38.20;32.28
9746;BME280;4912;50.836;12.958;2023-06-22T10:10:00;97911.63;;;37.12;32.21
9746;BME280;4912;50.836;12.958;2023-06-22T10:12:30;97914.59;;;37.45;31.72
9746;BME280;4912;50.836;12.958;2023-06-22T10:15:04;97923.50;;;37.83;31.80
9746;BME280;4912;50.836;12.958;2023-06-22T10:17:36;97928.88;;;38.06;31.75
9746;BME280;4912;50.836;12.958;2023-06-22T10:20:09;97925.50;;;38.11;32.03
9746;BME280;4912;50.836;12.958;2023-06-22T10:22:45;97913.06;;;38.42;32.42
9746;BME280;4912;50.836;12.958;2023-06-22T10:25:15;97917.31;;;38.75;30.84
9746;BME280;4912;50.836;12.958;2023-06-22T10:27:46;97918.97;;;38.80;30.61
9746;BME280;4912;50.836;12.958;2023-06-22T10:30:16;97912.34;;;38.95;29.70
9746;BME280;4912;50.836;12.958;2023-06-22T10:32:46;97910.19;;;38.78;31.95
9746;BME280;4912;50.836;12.958;2023-06-22T10:35:19;97901.38;;;38.92;30.32
9746;BME280;4912;50.836;12.958;2023-06-22T10:37:50;97905.78;;;37.90;31.73
9746;BME280;4912;50.836;12.958;2023-06-22T10:40:21;97916.00;;;37.60;32.56
9746;BME280;4912;50.836;12.958;2023-06-22T10:42:51;97900.00;;;37.90;31.59
9746;BME280;4912;50.836;12.958;2023-06-22T10:45:22;97888.13;;;38.33;31.50
9746;BME280;4912;50.836;12.958;2023-06-22T10:47:52;97891.75;;;38.34;31.72
9746;BME280;4912;50.836;12.958;2023-06-22T10:50:25;97881.91;;;38.76;30.82
9746;BME280;4912;50.836;12.958;2023-06-22T10:52:56;97883.78;;;38.50;30.80
9746;BME280;4912;50.836;12.958;2023-06-22T10:55:26;97877.00;;;37.92;31.79
9746;BME280;4912;50.836;12.958;2023-06-22T10:58:17;97877.97;;;38.68;31.20
9746;BME280;4912;50.836;12.958;2023-06-22T11:00:48;97872.19;;;39.23;30.59
9746;BME280;4912;50.836;12.958;2023-06-22T11:03:18;97881.16;;;39.90;30.09
9746;BME280;4912;50.836;12.958;2023-06-22T11:05:51;97874.47;;;39.66;29.73
9746;BME280;4912;50.836;12.958;2023-06-22T11:08:22;97865.22;;;40.11;29.07
9746;BME280;4912;50.836;12.958;2023-06-22T11:10:52;97871.41;;;40.01;28.22
9746;BME280;4912;50.836;12.958;2023-06-22T11:13:22;97862.91;;;40.07;27.88
9746;BME280;4912;50.836;12.958;2023-06-22T11:15:53;97868.59;;;40.47;28.09
9746;BME280;4912;50.836;12.958;2023-06-22T11:18:23;97861.88;;;40.86;27.58
9746;BME280;4912;50.836;12.958;2023-06-22T11:20:56;97864.69;;;40.84;27.26
9746;BME280;4912;50.836;12.958;2023-06-22T11:23:26;97854.31;;;41.24;27.53
9746;BME280;4912;50.836;12.958;2023-06-22T11:25:57;97853.63;;;41.50;26.63
9746;BME280;4912;50.836;12.958;2023-06-22T11:28:27;97860.06;;;40.99;26.83
9746;BME280;4912;50.836;12.958;2023-06-22T11:30:57;97852.38;;;41.07;26.70
9746;BME280;4912;50.836;12.958;2023-06-22T11:33:42;97845.78;;;41.82;26.89
9746;BME280;4912;50.836;12.958;2023-06-22T11:36:15;97834.97;;;42.42;26.17
9746;BME280;4912;50.836;12.958;2023-06-22T11:38:46;97831.00;;;42.60;24.88
9746;BME280;4912;50.836;12.958;2023-06-22T11:41:16;97843.91;;;41.93;24.88
9746;BME280;4912;50.836;12.958;2023-06-22T11:43:46;97838.28;;;42.01;24.92
9746;BME280;4912;50.836;12.958;2023-06-22T11:46:17;97830.38;;;41.50;25.21
9746;BME280;4912;50.836;12.958;2023-06-22T11:48:47;97836.53;;;41.90;25.08
9746;BME280;4912;50.836;12.958;2023-06-22T11:51:20;97829.25;;;41.89;24.63
9746;BME280;4912;50.836;12.958;2023-06-22T11:53:50;97817.03;;;42.24;24.36
9746;BME280;4912;50.836;12.958;2023-06-22T11:56:21;97832.31;;;42.53;24.68
9746;BME280;4912;50.836;12.958;2023-06-22T11:58:51;97815.38;;;42.75;23.86
9746;BME280;4912;50.836;12.958;2023-06-22T12:01:21;97812.81;;;42.91;23.98
9746;BME280;4912;50.836;12.958;2023-06-22T12:03:51;97806.84;;;43.19;24.06
9746;BME280;4912;50.836;12.958;2023-06-22T12:06:24;97798.97;;;43.61;22.98
9746;BME280;4912;50.836;12.958;2023-06-22T12:08:55;97793.06;;;43.97;22.58
9746;BME280;4912;50.836;12.958;2023-06-22T12:11:25;97796.19;;;43.32;23.02
9746;BME280;4912;50.836;12.958;2023-06-22T12:13:55;97788.84;;;43.28;23.41
9746;BME280;4912;50.836;12.958;2023-06-22T12:16:28;97781.69;;;44.16;23.65
9746;BME280;4912;50.836;12.958;2023-06-22T12:18:58;97766.84;;;44.45;22.69
9746;BME280;4912;50.836;12.958;2023-06-22T12:21:32;97774.38;;;44.15;22.56
9746;BME280;4912;50.836;12.958;2023-06-22T12:24:03;97769.50;;;43.85;22.42
9746;BME280;4912;50.836;12.958;2023-06-22T12:26:33;97765.31;;;43.94;22.89
9746;BME280;4912;50.836;12.958;2023-06-22T12:29:03;97758.31;;;43.70;22.61
9746;BME280;4912;50.836;12.958;2023-06-22T12:31:34;97760.22;;;43.55;22.68
9746;BME280;4912;50.836;12.958;2023-06-22T12:34:06;97759.31;;;43.86;22.40
9746;BME280;4912;50.836;12.958;2023-06-22T12:36:39;97762.09;;;43.78;23.02
9746;BME280;4912;50.836;12.958;2023-06-22T12:39:10;97749.34;;;43.99;23.13
9746;BME280;4912;50.836;12.958;2023-06-22T12:41:40;97766.03;;;43.95;23.01
9746;BME280;4912;50.836;12.958;2023-06-22T12:44:10;97767.47;;;43.16;23.40
9746;BME280;4912;50.836;12.958;2023-06-22T12:46:41;97761.84;;;43.64;22.61
9746;BME280;4912;50.836;12.958;2023-06-22T12:49:11;97751.94;;;43.81;22.19
9746;BME280;4912;50.836;12.958;2023-06-22T12:51:44;97743.53;;;44.01;22.45
9746;BME280;4912;50.836;12.958;2023-06-22T12:54:14;97739.22;;;44.04;22.27
9746;BME280;4912;50.836;12.958;2023-06-22T12:56:45;97734.09;;;44.51;22.84
9746;BME280;4912;50.836;12.958;2023-06-22T12:59:15;97743.03;;;44.65;21.93
9746;BME280;4912;50.836;12.958;2023-06-22T13:01:45;97730.84;;;45.43;22.52
9746;BME280;4912;50.836;12.958;2023-06-22T13:04:15;97720.69;;;45.50;21.61
9746;BME280;4912;50.836;12.958;2023-06-22T13:06:49;97711.22;;;45.52;21.26
9746;BME280;4912;50.836;12.958;2023-06-22T13:09:20;97711.78;;;45.38;21.61
9746;BME280;4912;50.836;12.958;2023-06-22T13:11:51;97711.22;;;44.88;21.91
9746;BME280;4912;50.836;12.958;2023-06-22T13:14:21;97705.97;;;44.24;22.08
9746;BME280;4912;50.836;12.958;2023-06-22T13:16:52;97706.44;;;44.06;23.16
9746;BME280;4912;50.836;12.958;2023-06-22T13:19:22;97702.22;;;43.73;22.93
9746;BME280;4912;50.836;12.958;2023-06-22T13:21:58;97710.34;;;43.01;23.28
9746;BME280;4912;50.836;12.958;2023-06-22T13:24:29;97710.44;;;43.85;23.09
9746;BME280;4912;50.836;12.958;2023-06-22T13:26:59;97710.84;;;43.25;22.67
9746;BME280;4912;50.836;12.958;2023-06-22T13:29:30;97691.69;;;43.12;23.39
9746;BME280;4912;50.836;12.958;2023-06-22T13:32:15;97693.22;;;43.57;23.00